• Join FlightAware (Why Join?)
  • Login
  • US Flag 
01:35PM EDT


 

Airport Tracker/Info


-or-


 

Live Flight TrackerFlight Track Log ✈ N441S ✈ 10-May-2013 ✈ KBJI - KIKV

Flight Track Log - Related Links

Times and Time Zones

All times are in EDT time to prevent confusion due to time zone crossing. See the N441S flight status page for this flight to view local times or setup timezone preferences in your user account.

Time Position Orientation Groundspeed Altitude Reporting Facility
EDT Latitude Longitude Course Direction KTS MPH feet Rate Location/Type
11:41AM 47.5003 -94.9320 170° South  Level Estimated
11:42AM 47.4433 -94.9172 170° South  Level Estimated
11:43AM 47.3864 -94.9024 170° South  Level Estimated
11:44AM 47.3294 -94.8876 170° South  Level Estimated
11:45AM 47.2725 -94.8729 170° South  Level Estimated
11:46AM 47.2155 -94.8582 170° South  Level Estimated
11:47AM 47.1586 -94.8435 170° South  Level Estimated
11:48AM 47.1016 -94.8289 170° South  Level Estimated
11:49AM 47.0447 -94.8143 170° South  Level Estimated
11:50AM 46.9877 -94.7997 170° South  Level Estimated
11:51AM 46.9307 -94.7852 170° South  Level Estimated
11:52AM 46.8738 -94.7707 170° South  Level Estimated
11:53AM 46.8168 -94.7562 170° South  Level Estimated
11:53AM 47.4111 -94.9122 170° South 161 185 6,200  Level Minneapolis Center
11:54AM 46.7598 -94.7417 170° South  Level Estimated
11:54AM 47.3667 -94.9006 170° South 161 185 7,900  Level Minneapolis Center
11:55AM 46.7029 -94.7273 170° South  Level Estimated
11:55AM 47.3178 -94.8867 169° South 170 196 9,400  Level Minneapolis Center
11:56AM 46.6459 -94.7129 170° South  Level Estimated
11:56AM 47.2650 -94.8722 169° South 183 211 10,800  Level Minneapolis Center
11:57AM 46.5889 -94.6986 170° South  Level Estimated
11:57AM 47.2086 -94.8583 171° South 196 226 12,200  Level Minneapolis Center
11:58AM 46.5319 -94.6842 170° South  Level Estimated
11:58AM 47.1378 -94.8400 170° South 210 242 14,000  Level Minneapolis Center
12:00PM 47.0775 -94.8247 170° South 217 250 15,600 1,320 Climbing Minneapolis Center
12:01PM 47.0044 -94.8056 170° South 222 255 17,200 1,200 Climbing Minneapolis Center
12:02PM 46.9394 -94.7897 171° South 234 269 18,200 960 Climbing Minneapolis Center
12:03PM 46.8550 -94.7689 170° South 255 293 19,300 960 Climbing Minneapolis Center
12:04PM 46.7833 -94.7503 170° South 262 302 20,300 960 Climbing Minneapolis Center
12:05PM 46.7108 -94.7319 170° South 265 305 21,300 900 Climbing Minneapolis Center
12:06PM 46.6394 -94.7139 170° South 262 302 22,200 720 Climbing Minneapolis Center
12:07PM 46.5667 -94.6958 170° South 265 305 22,900 360 Climbing Minneapolis Center
12:08PM 46.4903 -94.6775 171° South 276 318 23,000  Climbing Minneapolis Center
12:09PM 46.3928 -94.6519 170° South 296 341 23,000  Level Minneapolis Center
12:10PM 46.3111 -94.6300 169° South 299 344 23,000  Level Minneapolis Center
12:11PM 46.2261 -94.6106 171° South 305 351 23,000  Level Minneapolis Center
12:12PM 46.1328 -94.5850 169° South 305 351 23,000  Level Minneapolis Center
12:13PM 46.0478 -94.5644 170° South 309 356 23,000  Level Minneapolis Center
12:14PM 45.9478 -94.5403 170° South 307 353 23,000  Level Minneapolis Center
12:15PM 45.8628 -94.5206 171° South 310 357 23,000  Level Minneapolis Center
12:16PM 45.7794 -94.4992 170° South 307 353 23,000  Level Minneapolis Center
12:17PM 45.7128 -94.4836 171° South 306 352 23,000  Level Minneapolis Center
12:18PM 45.5972 -94.4528 169° South 303 349 23,000  Level Minneapolis Center
12:19PM 45.5144 -94.4336 171° South 303 349 23,000  Level Minneapolis Center
12:20PM 45.4322 -94.4136 170° South 302 348 23,000  Level Minneapolis Center
12:21PM 45.3492 -94.3939 171° South 303 349 23,000  Level Minneapolis Center
12:23PM 45.2492 -94.3708 171° South 305 351 23,000  Level Minneapolis Center
12:24PM 45.1503 -94.3458 170° South 304 350 23,000  Level Minneapolis Center
12:25PM 45.0686 -94.3272 171° South 300 345 23,000  Level Minneapolis Center
12:26PM 44.9858 -94.3083 171° South 302 348 23,000  Level Minneapolis Center
12:27PM 44.9044 -94.2886 170° South 301 346 23,000  Level Minneapolis Center
12:28PM 44.8219 -94.2675 170° South 303 349 23,000  Level Minneapolis Center
12:29PM 44.7222 -94.2447 171° South 304 350 23,000  Level Minneapolis Center
12:30PM 44.6408 -94.2250 170° South 300 345 23,000  Level Minneapolis Center
12:31PM 44.5597 -94.2061 171° South 299 344 23,000  Level Minneapolis Center
12:32PM 44.4775 -94.1869 171° South 300 345 23,000  Level Minneapolis Center
12:33PM 44.3958 -94.1686 171° South 299 344 23,000  Level Minneapolis Center
12:34PM 44.2967 -94.1450 170° South 304 350 23,000  Level Minneapolis Center
12:35PM 44.1983 -94.1228 171° South 301 346 23,000  Level Minneapolis Center
12:36PM 44.1167 -94.1028 170° South 300 345 23,000  Level Minneapolis Center
12:37PM 44.0350 -94.0853 171° South 300 345 23,000  Level Minneapolis Center
12:38PM 43.9539 -94.0661 170° South 298 343 23,000  Level Minneapolis Center
12:39PM 43.8569 -94.0436 170° South 294 338 23,000  Level Minneapolis Center
12:40PM 43.7750 -94.0256 171° South 298 343 23,000  Level Minneapolis Center
12:42PM 43.6950 -94.0072 171° South 293 337 23,000  Level Minneapolis Center
12:43PM 43.6133 -93.9889 171° South 297 342 23,000  Level Minneapolis Center
12:44PM 43.5267 -93.9689 171° South 295 339 23,000  Level Minneapolis Center
12:45PM 43.4472 -93.9511 171° South 293 337 23,000  Level Minneapolis Center
12:46PM 43.3667 -93.9331 171° South 294 338 23,000 -60 Level Minneapolis Center
12:47PM 43.2867 -93.9144 170° South 294 338 22,900 -540 Descending Minneapolis Center
12:48PM 43.1861 -93.8917 171° South 305 351 22,000 -840 Descending Minneapolis Center
12:49PM 43.0994 -93.8728 171° South 315 362 21,200 -840 Descending Minneapolis Center
12:50PM 42.9947 -93.8494 171° South 319 367 20,200 -840 Descending Minneapolis Center
12:51PM 42.9081 -93.8322 172° South 318 366 19,400 -840 Descending Minneapolis Center
12:52PM 42.8042 -93.8092 171° South 319 367 18,500 -900 Descending Minneapolis Center
12:53PM 42.7150 -93.7900 171° South 326 375 17,600 -900 Descending Minneapolis Center
12:54PM 42.6306 -93.7711 171° South 315 362 16,700 -1,020 Descending Minneapolis Center
12:55PM 42.5472 -93.7533 171° South 307 353 15,500 -1,320 Descending Minneapolis Center
12:56PM 42.4556 -93.7314 170° South 294 338 14,000 -1,500 Descending Minneapolis Center
12:57PM 42.3786 -93.7156 171° South 280 322 12,500 -1,500 Descending Minneapolis Center
12:58PM 42.2981 -93.6978 171° South 273 314 10,900 -1,500 Descending Minneapolis Center
12:59PM 42.2247 -93.6792 169° South 270 311 9,400 -1,500 Descending Minneapolis Center
01:00PM 42.1550 -93.6539 165° South 258 297 7,900 -1,260 Descending Minneapolis Center
01:01PM 42.0875 -93.6436 174° South 246 283 6,900 -960 Descending Minneapolis Center
01:02PM 42.0144 -93.6347 175° South 232 267 6,000 -840 Descending Minneapolis Center
01:03PM 41.9661 -93.6017 153° Southeast 226 260 5,300 -540 Descending Minneapolis Center
01:04PM 41.8975 -93.5875 171° South 216 249 5,000 -180 Descending Minneapolis Center
01:05PM 41.8511 -93.5594 156° South 209 241 5,000  Level Minneapolis Center
01:06PM 41.8042 -93.5417 164° South 202 232 5,000 -120 Level Minneapolis Center
01:07PM 41.7844 -93.5453 188° South 201 231 4,900 -840 Descending Minneapolis Center
01:07PM 41.7467 -93.5192 153° Southeast 207 238 4,200 -1,020 Descending Minneapolis Center
01:08PM 41.7208 -93.5225 186° South 217 250 3,900 -900 Descending Minneapolis Center
01:08PM 41.6847 -93.4972 152° Southeast 229 264 3,300 -780 Descending Minneapolis Center
01:09PM 41.6594 -93.4986 182° South 229 264 3,100 -300 Descending Minneapolis Center
01:09PM 41.6253 -93.4778 155° Southeast 221 254 3,000 -120 Descending Minneapolis Center
01:10PM 41.5992 -93.4872 195° South 201 231 3,000  Level Minneapolis Center
01:10PM 41.5753 -93.4797 167° South 182 209 3,000  Level Minneapolis Center
01:11PM 41.5508 -93.4881 194° South 177 204 3,000  Level Minneapolis Center
01:11PM 41.5275 -93.4844 173° South 172 198 3,000  Level Minneapolis Center
01:12PM 41.5167 -93.5128 243° Southwest 158 182 3,000  Level Minneapolis Center
01:12PM 41.5175 -93.5325 273° West 152 175 3,000 -120 Level Minneapolis Center
01:13PM 41.5222 -93.5619 282° West 141 162 2,900 -420 Descending Minneapolis Center
01:13PM 41.5439 -93.5578 North 135 155 2,600 -420 Descending Minneapolis Center
01:14PM 41.5583 -93.5672 334° Northwest 133 153 2,500 -120 Descending Minneapolis Center
01:14PM 41.5836 -93.5569 17° North 134 154 2,500  Level Minneapolis Center
01:15PM 41.5964 -93.5664 331° Northwest 128 147 2,500 -240 Level Minneapolis Center
01:15PM 41.6192 -93.5564 18° North 126 145 2,300 -420 Descending Minneapolis Center
01:16PM 41.6306 -93.5669 325° Northwest 124 143 2,000 -600 Descending Minneapolis Center
01:16PM 41.6525 -93.5589 15° North 126 145 1,700 -780 Descending Minneapolis Center
01:17PM 41.6731 -93.5664 345° North 123 142 1,200 -360 Descending Minneapolis Center
01:18PM 41.7036 -93.5650 North 122 140 1,100 -120 Descending Minneapolis Center